sensor_id;sensor_type;location;lat;lon;timestamp;pressure;altitude;pressure_sealevel;temperature;humidity
23616;BME280;11985;49.404;7.734;2023-06-22T00:04:29;97507.53;;;19.24;100.00
23616;BME280;11985;49.404;7.734;2023-06-22T00:09:31;97630.69;;;19.28;100.00
23616;BME280;11985;49.404;7.734;2023-06-22T00:14:34;97688.16;;;19.09;100.00
23616;BME280;11985;49.404;7.734;2023-06-22T00:19:36;97605.38;;;19.09;100.00
23616;BME280;11985;49.404;7.734;2023-06-22T00:24:40;97406.69;;;18.94;100.00
23616;BME280;11985;49.404;7.734;2023-06-22T00:29:43;97300.59;;;18.75;100.00
23616;BME280;11985;49.404;7.734;2023-06-22T00:34:45;97404.91;;;18.73;100.00
23616;BME280;11985;49.404;7.734;2023-06-22T00:39:46;97442.53;;;18.71;100.00
23616;BME280;11985;49.404;7.734;2023-06-22T00:44:49;97457.47;;;18.72;100.00
23616;BME280;11985;49.404;7.734;2023-06-22T00:49:51;97465.75;;;18.76;100.00
23616;BME280;11985;49.404;7.734;2023-06-22T00:54:53;97451.91;;;18.79;100.00
23616;BME280;11985;49.404;7.734;2023-06-22T00:59:56;97427.94;;;18.84;100.00
23616;BME280;11985;49.404;7.734;2023-06-22T01:04:58;97423.06;;;18.76;100.00
23616;BME280;11985;49.404;7.734;2023-06-22T01:10:06;97420.91;;;18.73;100.00
23616;BME280;11985;49.404;7.734;2023-06-22T01:15:20;97405.31;;;18.65;100.00
23616;BME280;11985;49.404;7.734;2023-06-22T01:20:23;97394.06;;;18.58;100.00
23616;BME280;11985;49.404;7.734;2023-06-22T01:25:33;97395.34;;;18.50;100.00
23616;BME280;11985;49.404;7.734;2023-06-22T01:30:37;97382.78;;;18.45;100.00
23616;BME280;11985;49.404;7.734;2023-06-22T01:35:40;97394.72;;;18.43;100.00
23616;BME280;11985;49.404;7.734;2023-06-22T01:40:42;97396.38;;;18.44;100.00
23616;BME280;11985;49.404;7.734;2023-06-22T01:45:45;97384.78;;;18.33;100.00
23616;BME280;11985;49.404;7.734;2023-06-22T01:50:47;97394.03;;;18.26;100.00
23616;BME280;11985;49.404;7.734;2023-06-22T01:55:48;97387.03;;;18.19;100.00
23616;BME280;11985;49.404;7.734;2023-06-22T02:00:56;97389.59;;;18.09;100.00
23616;BME280;11985;49.404;7.734;2023-06-22T02:06:03;97378.59;;;18.01;100.00
23616;BME280;11985;49.404;7.734;2023-06-22T02:11:06;97378.53;;;17.96;100.00
23616;BME280;11985;49.404;7.734;2023-06-22T02:16:10;97363.28;;;17.91;100.00
23616;BME280;11985;49.404;7.734;2023-06-22T02:21:13;97363.50;;;17.84;100.00
23616;BME280;11985;49.404;7.734;2023-06-22T02:26:17;97351.16;;;17.78;100.00
23616;BME280;11985;49.404;7.734;2023-06-22T02:31:21;97344.19;;;17.72;100.00
23616;BME280;11985;49.404;7.734;2023-06-22T02:36:22;97333.91;;;17.64;100.00
23616;BME280;11985;49.404;7.734;2023-06-22T02:41:24;97337.66;;;17.63;100.00
23616;BME280;11985;49.404;7.734;2023-06-22T02:46:27;97333.06;;;17.58;100.00
23616;BME280;11985;49.404;7.734;2023-06-22T02:51:28;97327.78;;;17.63;100.00
23616;BME280;11985;49.404;7.734;2023-06-22T02:56:32;97315.00;;;17.60;100.00
23616;BME280;11985;49.404;7.734;2023-06-22T03:01:34;97314.72;;;17.62;100.00
23616;BME280;11985;49.404;7.734;2023-06-22T03:06:40;97305.69;;;17.63;100.00
23616;BME280;11985;49.404;7.734;2023-06-22T03:11:41;97306.38;;;17.53;100.00
23616;BME280;11985;49.404;7.734;2023-06-22T03:16:44;97305.50;;;17.48;100.00
23616;BME280;11985;49.404;7.734;2023-06-22T03:21:45;97303.03;;;17.41;100.00
23616;BME280;11985;49.404;7.734;2023-06-22T03:26:47;97307.88;;;17.44;100.00
23616;BME280;11985;49.404;7.734;2023-06-22T03:31:50;97299.03;;;17.38;100.00
23616;BME280;11985;49.404;7.734;2023-06-22T03:36:51;97300.00;;;17.32;100.00
23616;BME280;11985;49.404;7.734;2023-06-22T03:41:53;97310.16;;;17.35;100.00
23616;BME280;11985;49.404;7.734;2023-06-22T03:46:56;97310.28;;;17.46;100.00
23616;BME280;11985;49.404;7.734;2023-06-22T03:51:58;97320.00;;;17.57;100.00
23616;BME280;11985;49.404;7.734;2023-06-22T03:56:59;97316.47;;;17.73;100.00
23616;BME280;11985;49.404;7.734;2023-06-22T04:02:02;97307.34;;;17.91;100.00
23616;BME280;11985;49.404;7.734;2023-06-22T04:07:04;97317.91;;;18.08;100.00
23616;BME280;11985;49.404;7.734;2023-06-22T04:12:07;97321.72;;;18.17;100.00
23616;BME280;11985;49.404;7.734;2023-06-22T04:17:10;97314.25;;;18.19;100.00
23616;BME280;11985;49.404;7.734;2023-06-22T04:22:15;97312.34;;;18.14;100.00
23616;BME280;11985;49.404;7.734;2023-06-22T04:27:16;97302.50;;;18.15;100.00
23616;BME280;11985;49.404;7.734;2023-06-22T04:32:20;97315.31;;;18.18;100.00
23616;BME280;11985;49.404;7.734;2023-06-22T04:37:21;97312.13;;;18.21;100.00
23616;BME280;11985;49.404;7.734;2023-06-22T04:42:25;97308.50;;;18.27;100.00
23616;BME280;11985;49.404;7.734;2023-06-22T04:47:28;97303.22;;;18.37;100.00
23616;BME280;11985;49.404;7.734;2023-06-22T04:52:30;97290.50;;;18.44;100.00
23616;BME280;11985;49.404;7.734;2023-06-22T04:57:31;97284.22;;;18.61;100.00
23616;BME280;11985;49.404;7.734;2023-06-22T05:02:35;97280.84;;;18.76;100.00
23616;BME280;11985;49.404;7.734;2023-06-22T05:07:37;97282.84;;;18.95;100.00
23616;BME280;11985;49.404;7.734;2023-06-22T05:12:41;97279.75;;;19.19;100.00
23616;BME280;11985;49.404;7.734;2023-06-22T05:17:44;97276.66;;;19.47;100.00
23616;BME280;11985;49.404;7.734;2023-06-22T05:22:46;97267.09;;;19.57;100.00
23616;BME280;11985;49.404;7.734;2023-06-22T05:27:48;97267.66;;;19.69;100.00
23616;BME280;11985;49.404;7.734;2023-06-22T05:32:52;97268.22;;;19.76;100.00
23616;BME280;11985;49.404;7.734;2023-06-22T05:37:53;97278.69;;;19.88;100.00
23616;BME280;11985;49.404;7.734;2023-06-22T05:42:55;97258.09;;;20.09;100.00
23616;BME280;11985;49.404;7.734;2023-06-22T05:47:58;97269.88;;;20.28;100.00
23616;BME280;11985;49.404;7.734;2023-06-22T05:53:00;97266.13;;;20.44;100.00
23616;BME280;11985;49.404;7.734;2023-06-22T05:58:01;97267.22;;;20.59;100.00
23616;BME280;11985;49.404;7.734;2023-06-22T06:03:05;97268.78;;;20.75;100.00
23616;BME280;11985;49.404;7.734;2023-06-22T06:08:07;97268.78;;;20.85;100.00
23616;BME280;11985;49.404;7.734;2023-06-22T06:13:08;97274.91;;;20.96;100.00
23616;BME280;11985;49.404;7.734;2023-06-22T06:18:11;97270.84;;;21.03;100.00
23616;BME280;11985;49.404;7.734;2023-06-22T06:23:14;97283.44;;;21.08;100.00
23616;BME280;11985;49.404;7.734;2023-06-22T06:28:16;97262.47;;;21.25;100.00
23616;BME280;11985;49.404;7.734;2023-06-22T06:33:19;97272.03;;;21.52;100.00
23616;BME280;11985;49.404;7.734;2023-06-22T06:38:21;97262.47;;;21.85;100.00
23616;BME280;11985;49.404;7.734;2023-06-22T06:43:22;97265.97;;;22.25;100.00
23616;BME280;11985;49.404;7.734;2023-06-22T06:48:26;97263.03;;;22.55;100.00
23616;BME280;11985;49.404;7.734;2023-06-22T06:53:27;97251.28;;;22.75;100.00
23616;BME280;11985;49.404;7.734;2023-06-22T06:58:29;97250.38;;;22.85;100.00
23616;BME280;11985;49.404;7.734;2023-06-22T07:03:32;97252.88;;;23.05;100.00
23616;BME280;11985;49.404;7.734;2023-06-22T07:08:34;97259.28;;;23.09;100.00
23616;BME280;11985;49.404;7.734;2023-06-22T07:13:37;97254.94;;;23.13;100.00
23616;BME280;11985;49.404;7.734;2023-06-22T07:18:40;97254.81;;;23.24;100.00
23616;BME280;11985;49.404;7.734;2023-06-22T07:23:42;97256.97;;;23.45;100.00
23616;BME280;11985;49.404;7.734;2023-06-22T07:28:43;97257.00;;;23.64;100.00
23616;BME280;11985;49.404;7.734;2023-06-22T07:33:46;97258.59;;;24.03;100.00
23616;BME280;11985;49.404;7.734;2023-06-22T07:38:48;97253.31;;;24.31;100.00
23616;BME280;11985;49.404;7.734;2023-06-22T07:43:49;97236.06;;;24.32;100.00
23616;BME280;11985;49.404;7.734;2023-06-22T07:48:52;97234.41;;;24.36;100.00
23616;BME280;11985;49.404;7.734;2023-06-22T07:53:54;97223.53;;;24.60;100.00
23616;BME280;11985;49.404;7.734;2023-06-22T07:58:56;97203.53;;;24.47;100.00
23616;BME280;11985;49.404;7.734;2023-06-22T08:04:00;97210.81;;;24.46;100.00
23616;BME280;11985;49.404;7.734;2023-06-22T08:09:02;97209.75;;;24.75;98.05
23616;BME280;11985;49.404;7.734;2023-06-22T08:14:04;97224.94;;;24.71;95.85
23616;BME280;11985;49.404;7.734;2023-06-22T08:19:07;97202.88;;;24.83;93.38
23616;BME280;11985;49.404;7.734;2023-06-22T08:24:09;97207.25;;;25.34;93.23
23616;BME280;11985;49.404;7.734;2023-06-22T08:29:10;97212.50;;;25.66;91.03
23616;BME280;11985;49.404;7.734;2023-06-22T08:34:14;97218.78;;;25.98;88.41
23616;BME280;11985;49.404;7.734;2023-06-22T08:39:15;97201.50;;;25.63;85.72
23616;BME280;11985;49.404;7.734;2023-06-22T08:44:18;97204.28;;;25.21;85.29
23616;BME280;11985;49.404;7.734;2023-06-22T08:49:22;97211.06;;;25.05;87.00
23616;BME280;11985;49.404;7.734;2023-06-22T08:54:23;97216.16;;;25.20;87.98
23616;BME280;11985;49.404;7.734;2023-06-22T08:59:25;97209.34;;;25.37;87.89
23616;BME280;11985;49.404;7.734;2023-06-22T09:04:28;97209.31;;;25.50;87.54
23616;BME280;11985;49.404;7.734;2023-06-22T09:09:29;97196.31;;;25.52;86.72
23616;BME280;11985;49.404;7.734;2023-06-22T09:14:31;97195.72;;;25.56;85.53
23616;BME280;11985;49.404;7.734;2023-06-22T09:19:34;97179.06;;;25.90;86.52
23616;BME280;11985;49.404;7.734;2023-06-22T09:24:36;97182.03;;;26.33;84.50
23616;BME280;11985;49.404;7.734;2023-06-22T09:29:37;97162.31;;;26.55;81.78
23616;BME280;11985;49.404;7.734;2023-06-22T09:34:41;97170.44;;;26.64;80.86
23616;BME280;11985;49.404;7.734;2023-06-22T09:39:42;97144.63;;;26.89;78.57
23616;BME280;11985;49.404;7.734;2023-06-22T09:44:44;97142.34;;;27.39;77.36
23616;BME280;11985;49.404;7.734;2023-06-22T09:49:46;97134.22;;;27.65;75.50
23616;BME280;11985;49.404;7.734;2023-06-22T09:54:48;97113.22;;;27.62;73.94
23616;BME280;11985;49.404;7.734;2023-06-22T09:59:50;97114.06;;;27.71;73.98
23616;BME280;11985;49.404;7.734;2023-06-22T10:04:52;97104.59;;;27.95;71.60
23616;BME280;11985;49.404;7.734;2023-06-22T10:09:54;97102.63;;;28.21;70.48
23616;BME280;11985;49.404;7.734;2023-06-22T10:14:56;97106.19;;;28.51;69.11
23616;BME280;11985;49.404;7.734;2023-06-22T10:19:58;97097.72;;;28.53;66.53
23616;BME280;11985;49.404;7.734;2023-06-22T10:25:01;97094.75;;;28.75;65.45
23616;BME280;11985;49.404;7.734;2023-06-22T10:30:03;97089.03;;;29.27;65.66
23616;BME280;11985;49.404;7.734;2023-06-22T10:35:07;97096.31;;;29.48;62.79
23616;BME280;11985;49.404;7.734;2023-06-22T10:40:12;97077.44;;;29.60;62.05
23616;BME280;11985;49.404;7.734;2023-06-22T10:45:14;97069.03;;;29.86;60.92
23616;BME280;11985;49.404;7.734;2023-06-22T10:50:17;97055.19;;;29.66;59.08
23616;BME280;11985;49.404;7.734;2023-06-22T10:55:20;97072.53;;;29.86;58.19
23616;BME280;11985;49.404;7.734;2023-06-22T11:00:22;97063.66;;;30.10;58.73
23616;BME280;11985;49.404;7.734;2023-06-22T11:05:24;97067.09;;;30.56;57.26
23616;BME280;11985;49.404;7.734;2023-06-22T11:10:26;97067.66;;;30.49;55.88
23616;BME280;11985;49.404;7.734;2023-06-22T11:15:28;97070.03;;;30.51;54.77
23616;BME280;11985;49.404;7.734;2023-06-22T11:20:31;97075.81;;;30.74;53.14
23616;BME280;11985;49.404;7.734;2023-06-22T11:25:34;97071.03;;;30.59;52.59
23616;BME280;11985;49.404;7.734;2023-06-22T11:30:38;97073.09;;;30.74;52.56
23616;BME280;11985;49.404;7.734;2023-06-22T11:35:41;97069.38;;;31.31;51.30
23616;BME280;11985;49.404;7.734;2023-06-22T11:40:42;97067.50;;;31.47;50.21
23616;BME280;11985;49.404;7.734;2023-06-22T11:45:44;97057.13;;;31.37;49.83
23616;BME280;11985;49.404;7.734;2023-06-22T11:50:47;97063.00;;;30.99;49.85
23616;BME280;11985;49.404;7.734;2023-06-22T11:55:48;97073.97;;;30.54;50.52
23616;BME280;11985;49.404;7.734;2023-06-22T12:00:50;97060.31;;;29.92;51.14
23616;BME280;11985;49.404;7.734;2023-06-22T12:05:53;97063.06;;;30.05;52.40
23616;BME280;11985;49.404;7.734;2023-06-22T12:10:55;97047.63;;;30.54;52.24
23616;BME280;11985;49.404;7.734;2023-06-22T12:15:56;97052.50;;;30.73;52.21
23616;BME280;11985;49.404;7.734;2023-06-22T12:20:59;97064.50;;;30.84;51.54
23616;BME280;11985;49.404;7.734;2023-06-22T12:26:01;97053.38;;;30.65;50.24
23616;BME280;11985;49.404;7.734;2023-06-22T12:31:02;97039.91;;;30.68;50.13
23616;BME280;11985;49.404;7.734;2023-06-22T12:36:05;97047.84;;;30.73;50.80
23616;BME280;11985;49.404;7.734;2023-06-22T12:41:07;97053.00;;;31.03;49.65
23616;BME280;11985;49.404;7.734;2023-06-22T12:46:09;97049.25;;;31.08;49.56
23616;BME280;11985;49.404;7.734;2023-06-22T12:51:12;97038.66;;;30.90;48.78
23616;BME280;11985;49.404;7.734;2023-06-22T12:56:13;97043.25;;;31.42;47.90
23616;BME280;11985;49.404;7.734;2023-06-22T13:01:15;97040.88;;;31.41;45.75
23616;BME280;11985;49.404;7.734;2023-06-22T13:06:19;97040.69;;;31.62;44.16
23616;BME280;11985;49.404;7.734;2023-06-22T13:11:21;97033.34;;;31.22;43.32
23616;BME280;11985;49.404;7.734;2023-06-22T13:16:22;97018.59;;;30.95;43.85
23616;BME280;11985;49.404;7.734;2023-06-22T13:21:25;97023.03;;;30.87;44.40
23616;BME280;11985;49.404;7.734;2023-06-22T13:26:27;97013.25;;;30.98;44.79
23616;BME280;11985;49.404;7.734;2023-06-22T13:31:29;97002.19;;;30.79;45.46
23616;BME280;11985;49.404;7.734;2023-06-22T13:36:32;97011.31;;;31.39;46.30
23616;BME280;11985;49.404;7.734;2023-06-22T13:41:34;97001.28;;;30.63;45.85
23616;BME280;11985;49.404;7.734;2023-06-22T13:46:35;96986.22;;;30.78;46.64
23616;BME280;11985;49.404;7.734;2023-06-22T13:51:38;96968.06;;;30.94;46.17
23616;BME280;11985;49.404;7.734;2023-06-22T13:56:40;96957.97;;;30.17;46.62
23616;BME280;11985;49.404;7.734;2023-06-22T14:01:42;96936.75;;;30.60;46.65
23616;BME280;11985;49.404;7.734;2023-06-22T14:06:45;96937.66;;;31.04;45.96
23616;BME280;11985;49.404;7.734;2023-06-22T14:11:46;96934.88;;;31.16;45.56
23616;BME280;11985;49.404;7.734;2023-06-22T14:16:48;96919.16;;;31.10;45.19
23616;BME280;11985;49.404;7.734;2023-06-22T14:21:51;96918.53;;;31.44;45.12
23616;BME280;11985;49.404;7.734;2023-06-22T14:26:53;96917.81;;;31.32;43.62
23616;BME280;11985;49.404;7.734;2023-06-22T14:31:55;96915.72;;;31.13;43.39
23616;BME280;11985;49.404;7.734;2023-06-22T14:36:58;96905.81;;;30.64;43.34
23616;BME280;11985;49.404;7.734;2023-06-22T14:41:59;96898.31;;;30.33;43.32
23616;BME280;11985;49.404;7.734;2023-06-22T14:47:01;96893.31;;;30.35;44.06
23616;BME280;11985;49.404;7.734;2023-06-22T14:52:05;96890.16;;;30.09;43.93
23616;BME280;11985;49.404;7.734;2023-06-22T14:57:07;96880.69;;;29.78;44.35
23616;BME280;11985;49.404;7.734;2023-06-22T15:02:09;96907.16;;;29.93;44.97
23616;BME280;11985;49.404;7.734;2023-06-22T15:07:11;96913.94;;;30.00;45.35
23616;BME280;11985;49.404;7.734;2023-06-22T15:12:13;96903.50;;;30.38;45.35
23616;BME280;11985;49.404;7.734;2023-06-22T15:17:15;96907.63;;;30.72;45.06
23616;BME280;11985;49.404;7.734;2023-06-22T15:22:18;96922.50;;;31.19;46.38
23616;BME280;11985;49.404;7.734;2023-06-22T15:27:19;96916.94;;;30.71;48.06
23616;BME280;11985;49.404;7.734;2023-06-22T15:32:21;96911.09;;;30.20;50.03
23616;BME280;11985;49.404;7.734;2023-06-22T15:37:24;96938.03;;;30.38;50.97
23616;BME280;11985;49.404;7.734;2023-06-22T15:42:26;96907.13;;;30.30;45.18
23616;BME280;11985;49.404;7.734;2023-06-22T15:47:27;96917.81;;;29.98;43.08
23616;BME280;11985;49.404;7.734;2023-06-22T15:52:30;96906.47;;;29.96;41.88
23616;BME280;11985;49.404;7.734;2023-06-22T15:57:32;96877.28;;;29.69;41.01
23616;BME280;11985;49.404;7.734;2023-06-22T16:02:35;96872.88;;;29.64;40.44
23616;BME280;11985;49.404;7.734;2023-06-22T16:07:38;96868.78;;;30.07;40.03
23616;BME280;11985;49.404;7.734;2023-06-22T16:12:42;96893.59;;;29.93;39.42
23616;BME280;11985;49.404;7.734;2023-06-22T16:17:44;96896.28;;;29.11;39.14
23616;BME280;11985;49.404;7.734;2023-06-22T16:22:47;96896.72;;;29.01;39.61
23616;BME280;11985;49.404;7.734;2023-06-22T16:27:48;96907.75;;;29.29;40.20
23616;BME280;11985;49.404;7.734;2023-06-22T16:32:51;96909.69;;;28.96;40.56
23616;BME280;11985;49.404;7.734;2023-06-22T16:37:55;96919.66;;;28.62;40.90
23616;BME280;11985;49.404;7.734;2023-06-22T16:42:57;96940.47;;;28.70;41.34
23616;BME280;11985;49.404;7.734;2023-06-22T16:47:58;96930.16;;;28.42;41.84
23616;BME280;11985;49.404;7.734;2023-06-22T16:53:01;96921.69;;;28.65;42.05
23616;BME280;11985;49.404;7.734;2023-06-22T16:58:03;96924.72;;;28.22;42.30
23616;BME280;11985;49.404;7.734;2023-06-22T17:03:06;96943.19;;;27.81;43.93
23616;BME280;11985;49.404;7.734;2023-06-22T17:08:12;96944.13;;;27.39;44.98
23616;BME280;11985;49.404;7.734;2023-06-22T17:13:15;96954.03;;;27.00;46.22
23616;BME280;11985;49.404;7.734;2023-06-22T17:18:18;96937.03;;;26.56;47.12
23616;BME280;11985;49.404;7.734;2023-06-22T17:23:23;96941.56;;;26.21;48.84
23616;BME280;11985;49.404;7.734;2023-06-22T17:28:25;96953.59;;;26.15;49.45
23616;BME280;11985;49.404;7.734;2023-06-22T17:33:27;96948.59;;;25.91;50.26
23616;BME280;11985;49.404;7.734;2023-06-22T17:38:30;96958.97;;;25.66;51.44
23616;BME280;11985;49.404;7.734;2023-06-22T17:43:32;96951.59;;;25.58;52.00
23616;BME280;11985;49.404;7.734;2023-06-22T17:48:33;96947.78;;;25.50;53.30
23616;BME280;11985;49.404;7.734;2023-06-22T17:53:36;96963.91;;;25.42;54.29
23616;BME280;11985;49.404;7.734;2023-06-22T17:58:38;96981.38;;;25.22;56.19
23616;BME280;11985;49.404;7.734;2023-06-22T18:03:39;96978.75;;;25.08;57.34
23616;BME280;11985;49.404;7.734;2023-06-22T18:08:42;96967.78;;;24.68;58.29
23616;BME280;11985;49.404;7.734;2023-06-22T18:13:44;96974.13;;;24.50;59.21
23616;BME280;11985;49.404;7.734;2023-06-22T18:18:46;96973.94;;;24.33;59.41
23616;BME280;11985;49.404;7.734;2023-06-22T18:23:50;96969.63;;;24.18;60.08
23616;BME280;11985;49.404;7.734;2023-06-22T18:28:53;96965.88;;;24.05;60.37
23616;BME280;11985;49.404;7.734;2023-06-22T18:33:57;96970.84;;;23.98;61.00
23616;BME280;11985;49.404;7.734;2023-06-22T18:39:02;96976.53;;;23.96;61.32
23616;BME280;11985;49.404;7.734;2023-06-22T18:44:10;96997.13;;;23.74;62.17
23616;BME280;11985;49.404;7.734;2023-06-22T18:49:13;96997.28;;;23.31;63.08
23616;BME280;11985;49.404;7.734;2023-06-22T18:54:20;97021.22;;;22.95;64.40
23616;BME280;11985;49.404;7.734;2023-06-22T18:59:41;97030.16;;;22.47;66.44
23616;BME280;11985;49.404;7.734;2023-06-22T19:04:44;97048.78;;;22.14;69.13
23616;BME280;11985;49.404;7.734;2023-06-22T19:10:22;97045.97;;;21.72;71.36
23616;BME280;11985;49.404;7.734;2023-06-22T19:15:29;97054.84;;;21.38;74.22
23616;BME280;11985;49.404;7.734;2023-06-22T19:20:33;97050.91;;;21.20;76.46
23616;BME280;11985;49.404;7.734;2023-06-22T19:25:36;97052.72;;;20.91;78.44
23616;BME280;11985;49.404;7.734;2023-06-22T19:30:40;97046.69;;;20.70;80.33
23616;BME280;11985;49.404;7.734;2023-06-22T19:35:42;97047.03;;;20.53;82.63
23616;BME280;11985;49.404;7.734;2023-06-22T19:40:45;97058.56;;;20.43;84.29
23616;BME280;11985;49.404;7.734;2023-06-22T19:45:47;97067.66;;;20.32;85.98
23616;BME280;11985;49.404;7.734;2023-06-22T19:50:48;97055.41;;;20.21;87.83
23616;BME280;11985;49.404;7.734;2023-06-22T19:55:51;97064.00;;;20.13;89.17
23616;BME280;11985;49.404;7.734;2023-06-22T20:00:54;97089.13;;;20.12;90.23
23616;BME280;11985;49.404;7.734;2023-06-22T20:06:07;97108.94;;;20.00;90.83
23616;BME280;11985;49.404;7.734;2023-06-22T20:11:11;97121.50;;;19.95;91.53
23616;BME280;11985;49.404;7.734;2023-06-22T20:16:12;97125.50;;;19.92;92.08
23616;BME280;11985;49.404;7.734;2023-06-22T20:21:14;97154.09;;;19.82;92.20
23616;BME280;11985;49.404;7.734;2023-06-22T20:26:17;97153.56;;;19.69;93.20
23616;BME280;11985;49.404;7.734;2023-06-22T20:31:19;97154.91;;;19.62;93.70
23616;BME280;11985;49.404;7.734;2023-06-22T20:36:23;97157.03;;;19.60;94.28
23616;BME280;11985;49.404;7.734;2023-06-22T20:41:26;97161.06;;;19.62;94.79
23616;BME280;11985;49.404;7.734;2023-06-22T20:46:29;97158.63;;;19.56;95.19
23616;BME280;11985;49.404;7.734;2023-06-22T20:51:31;97162.88;;;19.46;95.99
23616;BME280;11985;49.404;7.734;2023-06-22T20:56:34;97166.63;;;19.45;96.71
23616;BME280;11985;49.404;7.734;2023-06-22T21:01:36;97183.16;;;19.37;97.45
23616;BME280;11985;49.404;7.734;2023-06-22T21:06:37;97189.56;;;19.36;98.27
23616;BME280;11985;49.404;7.734;2023-06-22T21:11:41;97187.97;;;19.35;98.87
23616;BME280;11985;49.404;7.734;2023-06-22T21:16:42;97187.13;;;19.24;99.75
23616;BME280;11985;49.404;7.734;2023-06-22T21:21:45;97193.81;;;19.22;100.00
23616;BME280;11985;49.404;7.734;2023-06-22T21:26:48;97200.47;;;19.24;100.00
23616;BME280;11985;49.404;7.734;2023-06-22T21:31:49;97197.03;;;19.29;100.00
23616;BME280;11985;49.404;7.734;2023-06-22T21:36:51;97222.09;;;19.23;100.00
23616;BME280;11985;49.404;7.734;2023-06-22T21:41:54;97251.72;;;19.16;100.00
23616;BME280;11985;49.404;7.734;2023-06-22T21:46:55;97265.28;;;19.10;100.00
23616;BME280;11985;49.404;7.734;2023-06-22T21:51:57;97256.25;;;19.16;100.00
23616;BME280;11985;49.404;7.734;2023-06-22T21:56:59;97253.56;;;19.11;100.00
23616;BME280;11985;49.404;7.734;2023-06-22T22:02:01;97250.84;;;19.01;100.00
23616;BME280;11985;49.404;7.734;2023-06-22T22:07:03;97265.25;;;18.99;100.00
23616;BME280;11985;49.404;7.734;2023-06-22T22:12:08;97261.22;;;18.97;100.00
23616;BME280;11985;49.404;7.734;2023-06-22T22:17:10;97266.88;;;19.01;100.00
23616;BME280;11985;49.404;7.734;2023-06-22T22:22:11;97267.94;;;18.99;100.00
23616;BME280;11985;49.404;7.734;2023-06-22T22:27:15;97287.06;;;18.86;100.00
23616;BME280;11985;49.404;7.734;2023-06-22T22:32:16;97309.16;;;18.82;99.82
23616;BME280;11985;49.404;7.734;2023-06-22T22:37:18;97333.41;;;18.75;100.00
23616;BME280;11985;49.404;7.734;2023-06-22T22:42:21;97342.91;;;18.61;100.00
23616;BME280;11985;49.404;7.734;2023-06-22T22:47:23;97364.97;;;18.24;100.00
23616;BME280;11985;49.404;7.734;2023-06-22T22:52:25;97374.22;;;17.89;100.00
23616;BME280;11985;49.404;7.734;2023-06-22T22:57:30;97377.16;;;17.71;100.00
23616;BME280;11985;49.404;7.734;2023-06-22T23:02:31;97391.91;;;17.57;100.00
23616;BME280;11985;49.404;7.734;2023-06-22T23:07:33;97378.78;;;17.50;100.00
23616;BME280;11985;49.404;7.734;2023-06-22T23:12:36;97368.34;;;17.49;100.00
23616;BME280;11985;49.404;7.734;2023-06-22T23:17:38;97374.13;;;17.40;100.00
23616;BME280;11985;49.404;7.734;2023-06-22T23:22:39;97377.25;;;17.37;100.00
23616;BME280;11985;49.404;7.734;2023-06-22T23:27:42;97384.47;;;17.20;100.00
23616;BME280;11985;49.404;7.734;2023-06-22T23:32:44;97377.66;;;17.07;100.00
23616;BME280;11985;49.404;7.734;2023-06-22T23:37:45;97390.06;;;17.02;100.00
23616;BME280;11985;49.404;7.734;2023-06-22T23:42:48;97392.50;;;16.86;100.00
23616;BME280;11985;49.404;7.734;2023-06-22T23:47:50;97401.03;;;16.55;100.00
23616;BME280;11985;49.404;7.734;2023-06-22T23:52:52;97407.13;;;16.39;100.00
23616;BME280;11985;49.404;7.734;2023-06-22T23:57:55;97406.75;;;16.18;100.00
